Time;durP1;ratioP1;P1;durP2;ratioP2;P2;SDS_P1;SDS_P2;PMS_P1;PMS_P2;Temp;Humidity;BMP_temperature;BMP_pressure;BME280_temperature;BME280_humidity;BME280_pressure;Samples;Min_cycle;Max_cycle;Signal;HPM_P1;HPM_P2
2022/10/23 00:01:25;;;;;;;28.17;13.15;;;;;;;12.19;62.69;94454.75;5144062;27;20031;-83
2022/10/23 00:03:53;;;;;;;24.05;11.60;;;;;;;12.22;62.77;94435.41;5143794;27;20094;-82
2022/10/23 00:06:19;;;;;;;34.15;13.88;;;;;;;12.15;62.76;94437.78;5143938;27;20321;-83
2022/10/23 00:08:45;;;;;;;20.55;11.35;;;;;;;12.14;62.68;94430.84;5143943;27;20030;-83
2022/10/23 00:11:14;;;;;;;28.05;12.23;;;;;;;12.17;62.32;94424.06;5143849;27;20065;-82
2022/10/23 00:13:39;;;;;;;23.58;11.38;;;;;;;12.19;62.08;94428.03;5143753;27;20094;-82
2022/10/23 00:16:06;;;;;;;28.30;11.63;;;;;;;12.22;61.78;94419.38;5144053;27;20027;-82
2022/10/23 00:18:31;;;;;;;22.20;12.10;;;;;;;12.26;61.50;94437.50;5143769;27;20228;-83
2022/10/23 00:20:57;;;;;;;27.48;11.77;;;;;;;12.26;62.08;94430.25;5147986;27;20034;-83
2022/10/23 00:23:23;;;;;;;20.88;12.10;;;;;;;12.24;61.91;94427.88;5147844;27;20034;-83
2022/10/23 00:25:49;;;;;;;19.65;10.68;;;;;;;12.26;61.84;94406.19;5147724;27;20309;-83
2022/10/23 00:28:14;;;;;;;19.00;10.95;;;;;;;12.27;62.12;94401.63;5146609;27;20041;-83
2022/10/23 00:30:40;;;;;;;15.90;10.00;;;;;;;12.27;61.87;94399.75;5147723;27;20011;-82
2022/10/23 00:33:05;;;;;;;23.17;10.55;;;;;;;12.18;61.65;94404.28;5147834;27;20015;-82
2022/10/23 00:35:31;;;;;;;26.15;9.10;;;;;;;12.20;61.20;94412.78;5147332;27;20025;-82
2022/10/23 00:37:56;;;;;;;19.27;9.82;;;;;;;12.22;61.25;94416.72;5147607;27;20011;-83
2022/10/23 00:40:21;;;;;;;19.30;10.23;;;;;;;12.29;60.95;94429.63;5147362;27;20216;-81
2022/10/23 00:42:47;;;;;;;21.58;10.75;;;;;;;12.28;61.09;94432.63;5147266;27;20018;-82
2022/10/23 00:45:15;;;;;;;23.40;9.10;;;;;;;12.28;61.02;94436.06;5147110;27;20105;-80
2022/10/23 00:47:41;;;;;;;22.00;10.23;;;;;;;12.23;60.90;94428.19;5147188;27;20026;-80
2022/10/23 00:50:07;;;;;;;26.75;10.18;;;;;;;12.22;60.99;94426.63;5147406;27;20239;-80
2022/10/23 00:52:36;;;;;;;22.35;11.43;;;;;;;12.21;61.26;94419.69;5146991;27;20050;-80
2022/10/23 00:55:04;;;;;;;28.23;9.95;;;;;;;12.20;61.45;94412.78;5147023;27;20023;-80
2022/10/23 00:57:30;;;;;;;20.25;9.95;;;;;;;12.19;61.12;94397.84;5146874;27;20038;-80
2022/10/23 00:59:55;;;;;;;26.00;8.50;;;;;;;12.20;60.29;94392.19;5146779;27;20050;-80
2022/10/23 01:02:21;;;;;;;21.63;7.55;;;;;;;12.29;59.64;94399.44;5146943;27;20213;-80
2022/10/23 01:04:46;;;;;;;20.17;8.43;;;;;;;12.35;59.78;94400.88;5146604;27;20015;-81
2022/10/23 01:07:30;;;;;;;18.15;8.55;;;;;;;12.40;59.67;94398.06;5146639;27;20090;-81
2022/10/23 01:10:23;;;;;;;14.63;7.53;;;;;;;12.46;60.44;94394.16;5145493;27;20015;-81
2022/10/23 01:13:01;;;;;;;15.77;7.82;;;;;;;12.48;60.17;94394.63;5146823;27;20027;-81
2022/10/23 01:15:44;;;;;;;21.10;8.52;;;;;;;12.47;60.40;94397.59;5146569;27;20043;-81
2022/10/23 01:18:19;;;;;;;22.23;8.90;;;;;;;12.49;60.16;94401.53;5146774;27;20015;-81
2022/10/23 01:20:51;;;;;;;15.38;7.40;;;;;;;12.51;60.20;94410.03;5146461;27;20023;-81
2022/10/23 01:23:26;;;;;;;24.05;9.75;;;;;;;12.56;60.12;94436.63;5146623;27;20065;-81
2022/10/23 01:26:03;;;;;;;30.17;10.82;;;;;;;12.34;60.76;94466.13;5146394;27;20042;-81
2022/10/23 01:28:50;;;;;;;21.92;12.30;;;;;;;12.30;60.93;94468.63;5146333;27;20033;-81
2022/10/23 01:31:32;;;;;;;32.30;15.07;;;;;;;12.25;61.27;94487.47;5145826;27;20055;-81
2022/10/23 01:34:07;;;;;;;31.98;16.35;;;;;;;12.15;61.95;94475.19;5146309;27;20019;-82
2022/10/23 01:36:37;;;;;;;35.80;17.95;;;;;;;12.07;62.25;94513.34;5146180;27;20023;-82
2022/10/23 01:39:07;;;;;;;34.88;19.60;;;;;;;12.00;62.37;94504.94;5145947;27;20087;-82
2022/10/23 01:41:42;;;;;;;42.40;18.50;;;;;;;11.96;62.83;94499.41;5146149;27;20015;-82
2022/10/23 01:44:34;;;;;;;36.75;17.83;;;;;;;11.94;62.79;94485.59;5146197;27;20313;-82
2022/10/23 01:47:01;;;;;;;;;;;;;;;11.92;63.01;94508.34;5146546;27;20027;-83
2022/10/23 01:49:28;;;;;;;33.88;18.00;;;;;;;11.89;63.18;94508.97;5146038;27;19970;-82
2022/10/23 01:51:58;;;;;;;36.65;17.10;;;;;;;11.91;63.11;94496.88;5145886;27;20027;-83
2022/10/23 01:54:28;;;;;;;31.77;16.83;;;;;;;11.92;63.21;94495.00;5145838;27;20019;-82
2022/10/23 01:56:56;;;;;;;36.40;18.80;;;;;;;11.96;63.33;94466.59;5145632;27;20066;-82
2022/10/23 01:59:26;;;;;;;40.97;16.13;;;;;;;11.96;63.05;94454.00;5145598;27;20050;-83
2022/10/23 02:01:55;;;;;;;35.50;17.30;;;;;;;11.99;62.77;94455.31;5145826;27;20114;-83
2022/10/23 02:04:26;;;;;;;30.38;16.15;;;;;;;11.99;62.52;94441.94;5145616;27;20128;-83
2022/10/23 02:06:51;;;;;;;32.10;14.02;;;;;;;12.02;62.52;94441.31;5145631;27;20022;-83
2022/10/23 02:09:17;;;;;;;27.20;14.82;;;;;;;12.01;62.57;94447.75;5145567;27;20259;-83
2022/10/23 02:11:56;;;;;;;24.90;14.68;;;;;;;12.05;62.43;94464.75;5145622;27;20095;-82
2022/10/23 02:14:39;;;;;;;29.23;14.18;;;;;;;12.07;62.23;94467.91;5145502;27;20011;-82
2022/10/23 02:17:15;;;;;;;31.10;14.77;;;;;;;12.07;62.20;94481.28;5145417;27;20048;-83
2022/10/23 02:19:47;;;;;;;25.80;14.57;;;;;;;12.08;62.25;94490.84;5145351;27;20027;-83
2022/10/23 02:22:22;;;;;;;26.47;15.73;;;;;;;12.04;62.31;94505.91;5145496;27;20267;-82
2022/10/23 02:25:13;;;;;;;27.40;14.07;;;;;;;12.01;62.57;94517.22;5145235;27;20332;-82
2022/10/23 02:27:44;;;;;;;35.92;14.30;;;;;;;11.96;62.99;94515.44;5145122;27;20035;-83
2022/10/23 02:30:12;;;;;;;32.08;13.38;;;;;;;11.89;62.98;94519.66;5145033;27;20019;-82
2022/10/23 02:32:43;;;;;;;20.50;13.27;;;;;;;11.85;62.83;94520.22;5145404;27;20123;-82
2022/10/23 02:35:09;;;;;;;21.90;11.88;;;;;;;11.80;62.96;94500.88;5145297;27;20031;-83
2022/10/23 02:37:35;;;;;;;24.38;12.57;;;;;;;11.81;62.62;94515.81;5144813;27;20053;-83
2022/10/23 02:40:02;;;;;;;28.35;12.45;;;;;;;11.81;62.41;94507.78;5144847;27;20313;-83
2022/10/23 02:42:46;;;;;;;21.45;11.88;;;;;;;11.87;62.37;94503.13;5144263;27;20031;-83
2022/10/23 02:45:50;;;;;;;28.92;12.48;;;;;;;11.97;62.69;94497.56;5144938;27;20023;-83
2022/10/23 02:48:21;;;;;;;31.90;12.23;;;;;;;12.00;62.80;94496.94;5144692;27;20221;-83
2022/10/23 02:50:59;;;;;;;23.33;10.55;;;;;;;12.01;61.30;94499.31;5144707;27;20038;-82
2022/10/23 02:53:47;;;;;;;29.48;11.52;;;;;;;12.04;61.84;94500.56;5144696;27;20356;-82
2022/10/23 02:56:49;;;;;;;24.10;10.57;;;;;;;12.10;62.14;94509.25;5144296;27;20244;-82
2022/10/23 02:59:15;;;;;;;;;;;;;;;12.08;61.85;94501.53;5144978;27;20086;-82
2022/10/23 03:01:54;;;;;;;20.10;9.60;;;;;;;12.06;61.51;94509.06;5144496;27;20208;-81
2022/10/23 03:04:24;;;;;;;24.23;10.18;;;;;;;12.07;60.64;94504.50;5144379;27;20317;-82
2022/10/23 03:06:50;;;;;;;24.63;9.73;;;;;;;12.06;61.28;94503.72;5144431;27;20015;-82
2022/10/23 03:09:16;;;;;;;23.48;8.00;;;;;;;12.13;59.52;94514.78;5144466;27;20110;-82
2022/10/23 03:11:42;;;;;;;25.48;7.72;;;;;;;12.20;58.98;94517.78;5144136;27;20027;-82
2022/10/23 03:14:08;;;;;;;38.80;10.55;;;;;;;12.25;58.65;94522.22;5144610;27;20107;-82
2022/10/23 03:16:34;;;;;;;21.05;7.78;;;;;;;12.33;57.92;94512.66;5144355;27;20019;-82
2022/10/23 03:18:59;;;;;;;20.40;7.55;;;;;;;12.39;58.18;94511.44;5144135;27;20393;-82
2022/10/23 03:21:25;;;;;;;24.92;9.55;;;;;;;12.45;58.16;94520.88;5144043;27;20331;-82
2022/10/23 03:23:50;;;;;;;15.40;8.02;;;;;;;12.50;57.98;94534.13;5144080;27;20026;-81
2022/10/23 03:26:16;;;;;;;21.90;8.82;;;;;;;12.54;57.62;94528.97;5144333;27;20034;-82
2022/10/23 03:28:41;;;;;;;23.70;8.20;;;;;;;12.58;57.87;94540.63;5144008;27;20309;-83
2022/10/23 03:31:07;;;;;;;20.35;8.13;;;;;;;12.58;58.04;94541.41;5144240;27;20026;-81
2022/10/23 03:33:32;;;;;;;20.98;8.27;;;;;;;12.61;57.83;94540.78;5143934;27;20067;-82
2022/10/23 03:35:58;;;;;;;17.65;8.65;;;;;;;12.60;57.65;94538.44;5143878;27;20368;-82
2022/10/23 03:38:23;;;;;;;22.00;8.85;;;;;;;12.57;57.95;94545.16;5143875;27;20026;-82
2022/10/23 03:40:48;;;;;;;24.95;8.93;;;;;;;12.53;58.16;94538.06;5144061;27;20126;-82
2022/10/23 03:43:14;;;;;;;20.75;8.27;;;;;;;12.50;58.07;94544.06;5143905;27;20213;-82
2022/10/23 03:45:40;;;;;;;20.67;9.15;;;;;;;12.49;57.95;94542.47;5143856;27;20038;-81
2022/10/23 03:48:06;;;;;;;16.80;8.10;;;;;;;12.48;57.77;94547.03;5142731;27;20019;-82
2022/10/23 03:50:32;;;;;;;17.83;7.60;;;;;;;12.48;57.70;94544.34;5143841;27;20019;-82
2022/10/23 03:52:57;;;;;;;14.30;6.75;;;;;;;12.50;57.34;94557.41;5145398;27;20089;-81
2022/10/23 03:55:25;;;;;;;17.42;6.40;;;;;;;12.45;57.70;94553.75;5150394;27;20015;-81
2022/10/23 03:57:52;;;;;;;18.33;7.03;;;;;;;12.41;57.80;94555.47;5150101;27;20043;-81
2022/10/23 04:00:17;;;;;;;15.77;7.30;;;;;;;12.40;57.47;94564.59;5150534;27;20019;-81
2022/10/23 04:02:43;;;;;;;16.17;5.72;;;;;;;12.40;56.24;94569.94;5150562;27;20026;-80
2022/10/23 04:05:08;;;;;;;14.88;6.47;;;;;;;12.43;56.26;94571.19;5150688;27;20019;-81
2022/10/23 04:07:35;;;;;;;16.45;6.13;;;;;;;12.46;55.42;94575.94;5150540;27;20019;-81
2022/10/23 04:10:00;;;;;;;15.60;5.38;;;;;;;12.46;55.52;94575.94;5150541;27;20101;-81
2022/10/23 04:12:26;;;;;;;11.82;4.93;;;;;;;12.53;54.02;94565.59;5150248;27;20026;-81
2022/10/23 04:14:51;;;;;;;11.32;4.32;;;;;;;12.58;52.96;94565.47;5150493;27;20041;-81
2022/10/23 04:17:17;;;;;;;12.20;4.10;;;;;;;12.64;51.64;94572.25;5150392;27;20081;-81
2022/10/23 04:19:42;;;;;;;9.38;4.00;;;;;;;12.69;51.43;94562.53;5150244;27;20023;-80
2022/10/23 04:22:07;;;;;;;10.00;4.15;;;;;;;12.82;49.97;94562.44;5150522;27;20068;-81
2022/10/23 04:24:33;;;;;;;16.55;4.35;;;;;;;12.91;50.23;94556.31;5150261;27;20015;-81
2022/10/23 04:26:58;;;;;;;10.52;4.10;;;;;;;13.04;50.06;94555.38;5150422;27;20329;-81
2022/10/23 04:29:24;;;;;;;9.25;4.20;;;;;;;13.13;49.61;94550.06;5150189;27;20076;-81
2022/10/23 04:31:50;;;;;;;13.10;4.20;;;;;;;13.23;48.61;94563.16;5150361;27;20060;-81
2022/10/23 04:34:17;;;;;;;10.68;4.20;;;;;;;13.32;49.25;94561.31;5150364;27;20098;-81
2022/10/23 04:36:42;;;;;;;10.07;3.75;;;;;;;13.40;48.09;94543.69;5150127;27;20385;-83
2022/10/23 04:39:09;;;;;;;11.52;4.00;;;;;;;13.51;47.14;94550.28;5150304;27;20022;-82
2022/10/23 04:41:34;;;;;;;11.77;4.93;;;;;;;13.58;46.84;94533.78;5150233;27;20027;-83
2022/10/23 04:44:00;;;;;;;10.98;4.88;;;;;;;13.69;46.60;94544.94;5149084;27;20111;-83
2022/10/23 04:46:25;;;;;;;15.77;3.92;;;;;;;13.82;46.70;94547.47;5149969;27;20023;-83
2022/10/23 04:48:51;;;;;;;15.18;3.90;;;;;;;14.00;47.26;94542.09;5150052;27;20038;-84
2022/10/23 04:51:16;;;;;;;7.60;4.35;;;;;;;14.20;48.45;94548.69;5150099;27;20027;-84
2022/10/23 04:53:42;;;;;;;36.03;5.65;;;;;;;14.36;48.60;94557.78;5149867;27;20023;-83
2022/10/23 04:56:12;;;;;;;17.52;5.57;;;;;;;14.49;47.64;94549.88;5150092;27;20043;-83
2022/10/23 04:58:37;;;;;;;11.35;4.10;;;;;;;14.56;46.44;94558.25;5150288;27;20023;-82
2022/10/23 05:01:03;;;;;;;18.27;4.85;;;;;;;14.63;46.66;94555.84;5149905;27;20041;-81
2022/10/23 05:03:28;;;;;;;12.63;4.07;;;;;;;14.69;46.10;94565.28;5149777;27;20022;-81
2022/10/23 05:05:55;;;;;;;12.07;4.88;;;;;;;14.76;45.98;94567.50;5146349;27;20206;-81
2022/10/23 05:08:21;;;;;;;20.48;5.13;;;;;;;14.83;45.92;94559.72;5146678;27;20027;-81
2022/10/23 05:10:48;;;;;;;12.30;3.70;;;;;;;14.88;45.92;94577.53;5146476;27;20023;-81
2022/10/23 05:13:16;;;;;;;18.63;4.30;;;;;;;14.92;45.64;94581.13;5146730;27;20023;-82
2022/10/23 05:15:41;;;;;;;13.75;4.07;;;;;;;14.99;46.40;94576.06;5146586;27;20301;-84
2022/10/23 05:18:46;;;;;;;13.23;4.55;;;;;;;14.98;46.40;94585.22;5146880;27;20026;-84
2022/10/23 05:21:24;;;;;;;12.32;4.93;;;;;;;15.02;46.39;94584.28;5146376;27;20259;-84
2022/10/23 05:23:50;;;;;;;13.15;5.10;;;;;;;15.02;47.16;94578.91;5146466;27;20011;-84
2022/10/23 05:26:16;;;;;;;17.40;4.22;;;;;;;15.00;48.56;94581.13;5146515;27;20329;-85
2022/10/23 05:28:41;;;;;;;16.23;5.07;;;;;;;14.99;49.14;94579.53;5146169;27;20027;-81
2022/10/23 05:31:07;;;;;;;10.35;4.65;;;;;;;15.05;49.23;94588.19;5146370;27;20015;-85
2022/10/23 05:33:33;;;;;;;13.95;4.70;;;;;;;15.12;49.38;94593.06;5146464;27;20332;-82
2022/10/23 05:36:00;;;;;;;9.65;4.68;;;;;;;15.12;50.60;94587.69;5144886;27;20381;-82
2022/10/23 05:38:27;;;;;;;15.85;5.38;;;;;;;15.12;51.01;94601.91;5146028;27;20206;-82
2022/10/23 05:40:53;;;;;;;16.88;5.40;;;;;;;15.15;51.45;94608.53;5145796;27;20027;-83
2022/10/23 05:43:18;;;;;;;15.25;5.75;;;;;;;15.18;52.08;94610.56;5145920;27;20076;-83
2022/10/23 05:45:44;;;;;;;10.25;5.28;;;;;;;15.17;53.53;94614.38;5144702;27;20222;-83
2022/10/23 05:48:12;;;;;;;20.92;5.65;;;;;;;15.22;53.58;94620.34;5146010;27;20026;-83
2022/10/23 05:50:38;;;;;;;12.30;5.35;;;;;;;15.23;54.91;94621.13;5146083;27;20038;-83
2022/10/23 05:53:03;;;;;;;16.15;4.80;;;;;;;15.21;54.91;94621.44;5145688;27;20313;-83
2022/10/23 05:55:29;;;;;;;11.93;4.82;;;;;;;15.27;54.95;94627.44;5145645;27;20022;-82
2022/10/23 05:57:54;;;;;;;17.92;4.90;;;;;;;15.21;56.46;94621.44;5144488;27;20058;-83
2022/10/23 06:00:20;;;;;;;13.07;5.07;;;;;;;15.20;57.91;94627.94;5145656;27;20019;-83
2022/10/23 06:02:45;;;;;;;8.93;4.68;;;;;;;15.23;58.37;94639.94;5145461;27;20019;-83
2022/10/23 06:05:10;;;;;;;11.18;4.25;;;;;;;15.16;59.26;94643.13;5145382;27;20082;-81
2022/10/23 06:07:36;;;;;;;13.23;4.30;;;;;;;15.23;59.84;94645.28;5145628;27;20031;-81
2022/10/23 06:10:03;;;;;;;10.82;4.03;;;;;;;15.22;60.57;94663.31;5145548;27;20015;-81
2022/10/23 06:12:28;;;;;;;14.77;5.88;;;;;;;15.22;60.45;94652.56;5145463;27;20026;-81
2022/10/23 06:14:53;;;;;;;14.40;5.15;;;;;;;15.21;60.83;94650.19;5145238;27;20019;-81
2022/10/23 06:17:19;;;;;;;14.90;4.45;;;;;;;15.21;61.29;94655.56;5144142;27;20019;-83
2022/10/23 06:19:45;;;;;;;13.20;4.13;;;;;;;15.20;61.46;94657.47;5145132;27;20034;-84
2022/10/23 06:22:10;;;;;;;7.22;4.05;;;;;;;15.16;61.83;94667.28;5145168;27;20025;-84
2022/10/23 06:24:36;;;;;;;9.02;3.90;;;;;;;15.15;62.31;94659.56;5145264;27;20023;-84
2022/10/23 06:27:01;;;;;;;9.85;4.32;;;;;;;15.16;62.32;94669.97;5144914;27;20030;-84
2022/10/23 06:29:26;;;;;;;11.43;3.83;;;;;;;15.20;62.52;94662.03;5144892;27;20019;-82
2022/10/23 06:31:52;;;;;;;10.43;4.45;;;;;;;15.31;62.15;94675.91;5144996;27;20094;-83
2022/10/23 06:34:17;;;;;;;11.80;3.67;;;;;;;15.37;61.28;94675.41;5144890;27;20027;-83
2022/10/23 06:36:43;;;;;;;10.00;4.35;;;;;;;15.41;60.85;94684.41;5144880;27;20023;-81
2022/10/23 06:39:09;;;;;;;11.25;4.20;;;;;;;15.48;60.63;94656.22;5144870;27;20047;-82
2022/10/23 06:41:34;;;;;;;9.85;3.78;;;;;;;15.51;59.67;94685.94;5144802;27;20347;-82
2022/10/23 06:44:00;;;;;;;8.07;3.58;;;;;;;15.50;59.70;94667.44;5144650;27;20321;-83
2022/10/23 06:46:28;;;;;;;21.65;4.90;;;;;;;15.50;59.69;94675.50;5144682;27;20018;-80
2022/10/23 06:48:54;;;;;;;21.27;4.90;;;;;;;15.57;59.37;94689.19;5144474;27;20335;-80
2022/10/23 06:51:21;;;;;;;8.55;4.20;;;;;;;15.63;58.40;94687.91;5144746;27;20012;-80
2022/10/23 06:53:47;;;;;;;14.32;4.93;;;;;;;15.73;58.39;94684.88;5144401;27;20014;-80
2022/10/23 06:56:12;;;;;;;8.77;5.07;;;;;;;15.77;58.66;94676.97;5144293;27;20080;-80
2022/10/23 06:58:39;;;;;;;11.55;4.05;;;;;;;15.82;58.55;94679.47;5144827;27;20194;-80
2022/10/23 07:01:07;;;;;;;15.27;4.20;;;;;;;15.88;58.26;94672.00;5144300;27;20019;-80
2022/10/23 07:03:33;;;;;;;14.57;5.55;;;;;;;15.94;57.87;94681.47;5144482;27;20019;-80
2022/10/23 07:06:01;;;;;;;11.13;4.47;;;;;;;15.94;57.82;94684.16;5144357;27;20019;-80
2022/10/23 07:08:27;;;;;;;10.88;4.28;;;;;;;16.01;57.91;94692.47;5144217;27;20133;-80
2022/10/23 07:10:52;;;;;;;10.05;3.78;;;;;;;16.10;57.00;94684.31;5144038;27;20239;-83
2022/10/23 07:13:17;;;;;;;11.57;3.97;;;;;;;16.22;57.23;94682.50;5144297;27;20019;-82
2022/10/23 07:15:43;;;;;;;12.55;4.90;;;;;;;16.34;56.90;94683.69;5144268;27;20019;-83
2022/10/23 07:18:15;;;;;;;9.40;4.63;;;;;;;16.37;57.00;94683.81;5144290;27;20031;-82
2022/10/23 07:20:40;;;;;;;16.17;4.93;;;;;;;16.40;56.83;94679.66;5143934;27;20023;-82
2022/10/23 07:23:06;;;;;;;12.20;4.20;;;;;;;16.39;57.16;94686.97;5144143;27;20034;-81
2022/10/23 07:25:32;;;;;;;13.65;4.80;;;;;;;16.35;56.81;94674.50;5143992;27;20075;-81
2022/10/23 07:27:57;;;;;;;7.20;2.80;;;;;;;16.42;56.05;94694.38;5143375;27;20335;-82
2022/10/23 07:30:23;;;;;;;9.10;3.35;;;;;;;16.54;55.92;94677.47;5144032;27;20034;-81
2022/10/23 07:32:49;;;;;;;9.30;3.75;;;;;;;16.58;55.18;94689.16;5143713;27;20023;-81
2022/10/23 07:35:15;;;;;;;8.02;3.25;;;;;;;16.68;53.57;94681.81;5143540;27;20026;-81
2022/10/23 07:37:40;;;;;;;5.35;3.30;;;;;;;16.77;53.97;94690.56;5143752;27;20015;-81
2022/10/23 07:40:06;;;;;;;6.68;3.50;;;;;;;16.87;53.55;94679.41;5144162;27;20043;-81
2022/10/23 07:42:32;;;;;;;7.90;2.90;;;;;;;16.91;53.52;94691.09;5143918;27;20033;-93
2022/10/23 07:44:58;;;;;;;6.47;3.10;;;;;;;16.94;53.13;94671.59;5143668;27;20034;-82
2022/10/23 07:47:23;;;;;;;10.60;3.47;;;;;;;16.95;53.24;94678.53;5143868;27;20015;-82
2022/10/23 07:49:48;;;;;;;9.77;3.53;;;;;;;16.89;53.07;94682.56;5143887;27;20007;-82
2022/10/23 07:52:14;;;;;;;8.30;3.45;;;;;;;16.90;52.99;94689.53;5143955;27;20034;-83
2022/10/23 07:54:40;;;;;;;6.10;2.95;;;;;;;16.97;53.32;94679.00;5144165;27;20015;-86
2022/10/23 07:57:06;;;;;;;7.80;3.22;;;;;;;17.00;52.81;94678.34;5144380;27;20038;-88
2022/10/23 07:59:33;;;;;;;9.80;3.22;;;;;;;17.03;53.19;94688.44;5143802;27;20094;-86
2022/10/23 08:01:59;;;;;;;12.32;3.30;;;;;;;17.12;52.59;94695.66;5143690;27;20035;-82
2022/10/23 08:04:24;;;;;;;7.40;2.90;;;;;;;17.20;52.12;94675.91;5143498;27;20246;-81
2022/10/23 08:06:50;;;;;;;10.27;3.38;;;;;;;17.28;52.34;94699.28;5144296;27;20325;-82
2022/10/23 08:09:16;;;;;;;19.63;3.55;;;;;;;17.35;52.42;94704.88;5144778;27;20030;-81
2022/10/23 08:11:41;;;;;;;11.20;3.25;;;;;;;17.41;51.58;94687.38;5144237;27;20245;-82
2022/10/23 08:14:08;;;;;;;7.80;2.83;;;;;;;17.51;51.50;94701.53;5143579;27;20023;-81
2022/10/23 08:16:37;;;;;;;10.10;3.70;;;;;;;17.58;51.63;94688.28;5142792;27;20306;-81
2022/10/23 08:19:04;;;;;;;8.38;2.97;;;;;;;17.56;50.80;94698.59;5141507;27;20027;-81
2022/10/23 08:21:30;;;;;;;6.20;3.13;;;;;;;17.63;51.46;94679.97;5141413;27;20019;-81
2022/10/23 08:23:58;;;;;;;8.98;3.33;;;;;;;17.66;50.53;94684.69;5141790;27;20178;-81
2022/10/23 08:26:24;;;;;;;7.35;3.10;;;;;;;17.65;50.50;94680.41;5141651;27;20050;-81
2022/10/23 08:28:51;;;;;;;9.65;2.60;;;;;;;17.62;50.61;94698.03;5141578;27;20288;-82
2022/10/23 08:31:19;;;;;;;7.45;3.50;;;;;;;17.61;51.03;94679.53;5140300;28;20222;-81
2022/10/23 08:33:44;;;;;;;6.50;3.40;;;;;;;17.67;50.64;94680.88;5143060;27;20218;-82
2022/10/23 08:36:22;;;;;;;6.00;2.78;;;;;;;17.70;50.59;94690.97;5143478;27;20023;-83
2022/10/23 08:38:49;;;;;;;11.77;3.88;;;;;;;17.74;50.94;94683.78;5143037;27;20127;-82
2022/10/23 08:41:31;;;;;;;4.47;2.70;;;;;;;17.81;51.70;94694.78;5146210;27;20291;-82
2022/10/23 08:44:14;;;;;;;5.57;2.53;;;;;;;17.72;50.71;94696.81;5147195;27;20064;-82
2022/10/23 08:46:43;;;;;;;6.70;3.35;;;;;;;17.79;51.43;94702.44;5147350;27;20217;-82
2022/10/23 08:49:36;;;;;;;5.80;2.55;;;;;;;17.79;51.13;94698.97;5147134;27;20054;-82
2022/10/23 08:52:11;;;;;;;16.30;3.97;;;;;;;17.83;50.62;94703.34;5146826;27;20348;-82
2022/10/23 08:55:14;;;;;;;4.20;2.83;;;;;;;17.86;50.62;94690.31;5147143;27;20027;-82
2022/10/23 08:58:00;;;;;;;;;;;;;;;17.88;50.66;94698.84;5140302;27;20087;-83
2022/10/23 09:00:27;;;;;;;20.05;3.72;;;;;;;17.90;50.73;94689.31;5146847;27;19907;-82
2022/10/23 09:02:53;;;;;;;8.05;2.53;;;;;;;17.91;50.11;94680.09;5146934;27;20055;-82
2022/10/23 09:05:23;;;;;;;6.45;3.63;;;;;;;17.98;50.28;94687.59;5146922;27;20033;-82
2022/10/23 09:07:54;;;;;;;11.85;3.03;;;;;;;17.97;49.24;94689.53;5146573;27;20310;-82
2022/10/23 09:10:20;;;;;;;7.75;2.85;;;;;;;18.03;49.92;94690.88;5146688;27;20015;-83
2022/10/23 09:12:45;;;;;;;6.75;2.88;;;;;;;18.12;49.45;94676.47;5146557;27;20030;-82
2022/10/23 09:15:33;;;;;;;7.20;2.40;;;;;;;18.19;49.12;94682.81;5146539;27;20313;-82
2022/10/23 09:18:12;;;;;;;4.68;2.22;;;;;;;18.27;48.71;94677.66;5146618;27;20254;-82
2022/10/23 09:20:39;;;;;;;5.82;2.65;;;;;;;18.36;48.43;94675.59;5146576;27;20046;-82
2022/10/23 09:23:16;;;;;;;4.70;2.38;;;;;;;18.50;49.08;94686.81;5146466;27;20023;-82
2022/10/23 09:25:42;;;;;;;5.75;2.22;;;;;;;18.58;48.16;94683.19;5146238;27;20023;-82
2022/10/23 09:28:22;;;;;;;6.80;2.95;;;;;;;18.64;47.96;94686.41;5146525;27;20131;-82
2022/10/23 09:30:49;;;;;;;6.95;2.30;;;;;;;18.65;47.78;94675.25;5146244;27;20035;-82
2022/10/23 09:33:18;;;;;;;8.10;2.40;;;;;;;18.64;48.43;94670.19;5146232;27;20022;-82
2022/10/23 09:35:51;;;;;;;5.00;2.50;;;;;;;18.77;47.85;94671.72;5146210;27;20019;-82
2022/10/23 09:38:28;;;;;;;9.88;2.53;;;;;;;18.78;47.78;94664.41;5145914;27;20019;-82
2022/10/23 09:40:54;;;;;;;6.47;2.38;;;;;;;18.80;47.52;94672.97;5145986;27;20091;-82
2022/10/23 09:43:26;;;;;;;7.40;2.67;;;;;;;18.88;47.24;94660.44;5146137;27;20027;-82
2022/10/23 09:45:58;;;;;;;7.60;2.33;;;;;;;18.99;46.39;94664.19;5145991;27;20022;-82
2022/10/23 09:48:24;;;;;;;8.13;2.25;;;;;;;18.99;46.46;94683.13;5145878;27;20263;-82
2022/10/23 09:50:51;;;;;;;4.75;2.40;;;;;;;19.02;46.96;94664.31;5144315;27;20015;-82
2022/10/23 09:53:38;;;;;;;5.97;2.50;;;;;;;19.13;47.17;94661.09;5145754;27;20305;-82
2022/10/23 09:56:23;;;;;;;3.75;2.15;;;;;;;19.20;46.07;94661.28;5145810;27;20233;-82
2022/10/23 09:59:03;;;;;;;5.32;2.22;;;;;;;19.32;45.80;94663.13;5145565;27;20019;-81
2022/10/23 10:01:50;;;;;;;4.80;2.13;;;;;;;19.40;44.92;94667.56;5145436;27;20042;-81
2022/10/23 10:04:16;;;;;;;6.00;1.98;;;;;;;19.41;44.64;94669.13;5138703;27;20051;-81
2022/10/23 10:06:42;;;;;;;7.53;2.63;;;;;;;19.47;44.96;94666.94;5145465;27;20023;-81
2022/10/23 10:09:14;;;;;;;4.38;2.53;;;;;;;19.55;44.50;94657.88;5145468;27;20299;-82
2022/10/23 10:11:46;;;;;;;3.70;2.00;;;;;;;19.66;44.29;94642.66;5145121;27;20110;-81
2022/10/23 10:14:17;;;;;;;8.45;2.05;;;;;;;19.70;43.50;94651.66;5145112;27;20030;-82
2022/10/23 10:16:49;;;;;;;2.63;1.58;;;;;;;19.74;43.49;94643.63;5144178;27;20191;-81
2022/10/23 10:19:35;;;;;;;6.00;2.00;;;;;;;19.88;43.02;94657.47;5145291;27;20026;-82
2022/10/23 10:22:07;;;;;;;3.08;1.50;;;;;;;19.90;40.27;94649.78;5145158;27;20026;-82
2022/10/23 10:25:08;;;;;;;5.20;2.00;;;;;;;19.79;41.75;94637.97;5145285;27;20026;-81
2022/10/23 10:28:11;;;;;;;4.60;1.70;;;;;;;19.73;42.71;94645.56;5142852;27;20058;-82
2022/10/23 10:30:51;;;;;;;5.07;1.80;;;;;;;19.76;41.15;94644.88;5145293;27;20387;-82
2022/10/23 10:33:32;;;;;;;3.72;2.20;;;;;;;19.83;42.04;94638.84;5145014;27;20278;-81
2022/10/23 10:36:19;;;;;;;5.55;1.73;;;;;;;19.86;41.59;94634.63;5144933;27;20042;-81
2022/10/23 10:38:51;;;;;;;7.78;1.73;;;;;;;19.97;42.23;94647.25;5144704;27;20054;-81
2022/10/23 10:41:35;;;;;;;;;;;;;;;20.01;39.17;94636.53;5144816;27;20095;-84
2022/10/23 10:44:22;;;;;;;2.33;1.52;;;;;;;20.03;39.82;94647.78;5144684;27;19938;-86
2022/10/23 10:47:06;;;;;;;4.32;1.52;;;;;;;19.97;38.34;94622.13;5144841;27;20068;-85
2022/10/23 10:49:38;;;;;;;2.28;1.42;;;;;;;19.94;39.66;94631.72;5144764;27;20062;-84
2022/10/23 10:52:06;;;;;;;2.40;1.60;;;;;;;19.97;39.56;94627.53;5144882;27;20026;-86
2022/10/23 10:55:11;;;;;;;4.78;1.77;;;;;;;20.04;39.61;94630.38;5145028;27;20022;-86
2022/10/23 10:58:17;;;;;;;2.65;1.38;;;;;;;20.12;38.51;94640.22;5133390;27;20325;-78
2022/10/23 11:00:45;;;;;;;2.83;1.58;;;;;;;20.11;37.95;94624.34;5144028;27;20340;-77
2022/10/23 11:03:43;;;;;;;6.13;1.83;;;;;;;20.24;39.13;94634.69;5143684;27;20072;-78
2022/10/23 11:06:20;;;;;;;3.42;1.50;;;;;;;20.29;38.43;94635.53;5144704;27;20250;-78
2022/10/23 11:08:45;;;;;;;5.78;2.17;;;;;;;20.30;38.67;94621.66;5144298;27;20026;-78
2022/10/23 11:11:44;;;;;;;7.10;1.67;;;;;;;20.33;38.49;94607.38;5143359;27;20082;-77
2022/10/23 11:14:21;;;;;;;6.10;1.63;;;;;;;20.46;37.78;94612.69;5144508;27;20034;-77
2022/10/23 11:16:52;;;;;;;3.25;1.48;;;;;;;20.46;36.96;94612.69;5144446;27;20037;-77
2022/10/23 11:19:25;;;;;;;3.10;1.60;;;;;;;20.54;37.43;94598.91;5144490;27;20015;-77
2022/10/23 11:22:20;;;;;;;10.20;1.92;;;;;;;20.48;37.80;94603.06;5144424;27;20209;-77
2022/10/23 11:25:11;;;;;;;6.82;2.55;;;;;;;20.48;38.56;94610.41;5144438;27;20209;-78
2022/10/23 11:27:42;;;;;;;3.67;1.70;;;;;;;20.53;38.04;94597.34;5144213;27;20019;-78
2022/10/23 11:30:34;;;;;;;3.57;1.53;;;;;;;20.43;37.84;94593.31;5144375;27;20309;-78
2022/10/23 11:32:59;;;;;;;3.67;1.92;;;;;;;20.42;38.73;94591.72;5142857;27;20259;-77
2022/10/23 11:35:34;;;;;;;4.40;1.65;;;;;;;20.42;37.64;94590.94;5144191;27;20317;-78
2022/10/23 11:38:12;;;;;;;4.45;1.40;;;;;;;20.46;37.11;94583.66;5143836;27;20185;-78
2022/10/23 11:40:53;;;;;;;6.22;2.42;;;;;;;20.60;37.24;94594.81;5144096;27;20035;-78
2022/10/23 11:43:52;;;;;;;3.75;1.58;;;;;;;20.62;37.31;94584.38;5143897;27;20217;-78